Yankton, SD

9:08 AM CST on December 16, 2017 (GMT -0600)
Gurney Municipal

Weather History for KYKN - February, 2014

Change the Weather History Date:

Wednesday, February 19, 2014

  Actual Average Record
Temperature  
Mean Temperature 40 °F -  
Max Temperature 57 °F 33 °F 64 °F (1954)
Min Temperature 24 °F 14 °F -15 °F (1959)
Degree Days  
Heating Degree Days 24    
Moisture  
Dew Point 22 °F    
Average Humidity 55    
Maximum Humidity 93    
Minimum Humidity 21    
Precipitation  
Precipitation 0.00 in - - ()
Sea Level Pressure  
Sea Level Pressure 29.73 in    
Wind  
Wind Speed 10 mph (South)    
Max Wind Speed 32 mph    
Max Gust Speed 39 mph    
Visibility 10 miles    
Events      
Averages and records for this station are not official NWS values.
T = Trace of Precipitation, MM = Missing Value Source: NWS Daily Summary

Daily Weather History Graph

Daily Weather History Graph

Search for Another Location

Airport or City:

Trip Planner

Search our weather history database for the weather conditions in past years. The results will help you decide how hot, cold, wet, or windy it might be!

Date:

Astronomy

Feb. 19, 2014 Rise Set
Actual Time 7:21 AM CST 6:06 PM CST
Civil Twilight 6:52 AM CST 6:35 PM CST
Nautical Twilight 6:19 AM CST 7:08 PM CST
Astronomical Twilight 5:46 AM CST 7:41 PM CST
Moon 11:09 PM CST (2/19) 9:20 AM CST (2/19)
Length of Visible Light 11h 42m
Length of Day
10h 45m
Waning Gibbous, 79% of the Moon is Illuminated
Feb 19
Waning Gibbous
Feb 22
Last Quarter
Mar 1
New
Mar 8
First Quarter
Mar 16
Full

Hourly Weather History & Observations

Time (CST) Temp. Windchill Dew Point Humidity Pressure Visibility Wind Dir Wind Speed Gust Speed Precip Events Conditions
12:15 AM 30.2 °F 21.3 °F 26.6 °F 86% 29.91 in 10.0 mi SW 10.4 mph - N/A   Clear
12:35 AM 30.2 °F 22.6 °F 26.6 °F 86% 29.91 in 10.0 mi SW 8.1 mph - N/A   Clear
12:55 AM 30.2 °F 22.6 °F 26.6 °F 86% 29.91 in 10.0 mi WSW 8.1 mph - N/A   Clear
1:15 AM 32.0 °F 24.2 °F 26.6 °F 80% 29.90 in 10.0 mi WSW 9.2 mph - N/A   Clear
1:35 AM 32.0 °F 24.8 °F 26.6 °F 80% 29.90 in 10.0 mi WSW 8.1 mph - N/A   Clear
1:55 AM 32.0 °F 24.2 °F 26.6 °F 80% 29.90 in 10.0 mi SW 9.2 mph - N/A   Clear
2:15 AM 30.2 °F 21.9 °F 26.6 °F 86% 29.89 in 10.0 mi SW 9.2 mph - N/A   Clear
2:35 AM 30.2 °F 21.3 °F 26.6 °F 86% 29.89 in 10.0 mi SW 10.4 mph - N/A   Clear
2:55 AM 32.0 °F 23.6 °F 24.8 °F 75% 29.89 in 10.0 mi WSW 10.4 mph - N/A   Clear
3:15 AM 30.2 °F 24.3 °F 24.8 °F 80% 29.89 in 10.0 mi WSW 5.8 mph - N/A   Clear
3:35 AM 30.2 °F - 24.8 °F 80% 29.88 in 10.0 mi Calm Calm - N/A   Clear
3:55 AM 28.4 °F 24.6 °F 24.8 °F 86% 29.88 in 10.0 mi South 3.5 mph - N/A   Clear
4:15 AM 28.4 °F - 26.6 °F 93% 29.88 in 10.0 mi Calm Calm - N/A   Clear
4:35 AM 26.6 °F - 19.4 °F 74% 29.89 in 10.0 mi Calm Calm - N/A   Clear
4:55 AM 26.6 °F 21.2 °F 24.8 °F 93% 29.88 in 10.0 mi SW 4.6 mph - N/A   Clear
5:15 AM 24.8 °F 20.5 °F 21.2 °F 86% 29.88 in 10.0 mi South 3.5 mph - N/A   Clear
5:35 AM 28.4 °F 20.4 °F 23.0 °F 80% 29.88 in 10.0 mi SSW 8.1 mph - N/A   Clear
5:55 AM 26.6 °F 19.1 °F 21.2 °F 80% 29.89 in 10.0 mi SSW 6.9 mph - N/A   Clear
6:15 AM 26.6 °F 19.1 °F 21.2 °F 80% 29.88 in 10.0 mi SSW 6.9 mph - N/A   Clear
6:35 AM 26.6 °F 22.6 °F 21.2 °F 80% 29.88 in 10.0 mi SW 3.5 mph - N/A   Clear
6:55 AM 28.4 °F 21.2 °F 23.0 °F 80% 29.88 in 10.0 mi South 6.9 mph - N/A   Clear
7:15 AM 28.4 °F 22.2 °F 21.2 °F 74% 29.87 in 10.0 mi SSW 5.8 mph - N/A   Clear
7:35 AM 28.4 °F - 21.2 °F 74% 29.87 in 10.0 mi Calm Calm - N/A   Clear
7:55 AM 26.6 °F - 21.2 °F 80% 29.87 in 10.0 mi Calm Calm - N/A   Clear
8:15 AM 26.6 °F 21.2 °F 23.0 °F 86% 29.86 in 10.0 mi SSE 4.6 mph - N/A   Clear
8:35 AM 28.4 °F 23.3 °F 23.0 °F 80% 29.85 in 10.0 mi SE 4.6 mph - N/A   Clear
8:55 AM 30.2 °F 24.3 °F 24.8 °F 80% 29.85 in 10.0 mi SE 5.8 mph - N/A   Clear
9:15 AM 33.8 °F 29.6 °F 24.8 °F 70% 29.85 in 10.0 mi SE 4.6 mph - N/A   Clear
9:35 AM 35.6 °F 30.7 °F 26.6 °F 70% 29.84 in 10.0 mi SE 5.8 mph - N/A   Clear
9:55 AM 37.4 °F 32.8 °F 26.6 °F 65% 29.83 in 10.0 mi ESE 5.8 mph - N/A   Clear
10:15 AM 41.0 °F 37.1 °F 30.2 °F 65% 29.83 in 10.0 mi ESE 5.8 mph - N/A   Clear
10:35 AM 44.6 °F 40.7 °F 28.4 °F 53% 29.81 in 10.0 mi South 6.9 mph - N/A   Clear
10:55 AM 48.2 °F - 23.0 °F 37% 29.80 in 10.0 mi South 15.0 mph 20.7 mph N/A   Clear
11:15 AM 50.0 °F - 21.2 °F 32% 29.78 in 10.0 mi South 17.3 mph 21.9 mph N/A   Clear
11:35 AM 50.0 °F - 21.2 °F 32% 29.77 in 10.0 mi South 23.0 mph 27.6 mph N/A   Clear
11:55 AM 51.8 °F - 21.2 °F 30% 29.75 in 10.0 mi South 23.0 mph 29.9 mph N/A   Clear
12:15 PM 53.6 °F - 23.0 °F 30% 29.74 in 10.0 mi South 20.7 mph 28.8 mph N/A   Clear
12:35 PM 53.6 °F - 21.2 °F 28% 29.72 in 10.0 mi South 23.0 mph 29.9 mph N/A   Clear
12:55 PM 55.4 °F - 21.2 °F 26% 29.70 in 10.0 mi South 25.3 mph 29.9 mph N/A   Clear
1:15 PM 55.4 °F - 19.4 °F 25% 29.68 in 10.0 mi South 28.8 mph 36.8 mph N/A   Clear
1:35 PM 55.4 °F - 19.4 °F 25% 29.66 in 10.0 mi South 21.9 mph 34.5 mph N/A   Clear
1:55 PM 57.2 °F - 19.4 °F 23% 29.65 in 10.0 mi South 23.0 mph 33.4 mph N/A   Clear
2:15 PM 57.2 °F - 19.4 °F 23% 29.63 in 10.0 mi South 29.9 mph 33.4 mph N/A   Clear
2:35 PM 57.2 °F - 19.4 °F 23% 29.62 in 10.0 mi South 32.2 mph 39.1 mph N/A   Clear
2:55 PM 57.2 °F - 19.4 °F 23% 29.62 in 10.0 mi South 23.0 mph 32.2 mph N/A   Clear
3:15 PM 57.2 °F - 17.6 °F 21% 29.61 in 10.0 mi South 28.8 mph 36.8 mph N/A   Clear
3:35 PM 57.2 °F - 17.6 °F 21% 29.60 in 10.0 mi South 23.0 mph 33.4 mph N/A   Clear
3:55 PM 55.4 °F - 17.6 °F 23% 29.59 in 10.0 mi South 27.6 mph 35.7 mph N/A   Clear
4:15 PM 55.4 °F - 19.4 °F 25% 29.59 in 10.0 mi South 21.9 mph 27.6 mph N/A   Clear
4:35 PM 53.6 °F - 19.4 °F 26% 29.59 in 10.0 mi South 18.4 mph 26.5 mph N/A   Clear
4:55 PM 53.6 °F - 19.4 °F 26% 29.58 in 10.0 mi South 16.1 mph 27.6 mph N/A   Clear
5:15 PM 53.6 °F - 19.4 °F 26% 29.57 in 10.0 mi South 20.7 mph 26.5 mph N/A   Clear
5:35 PM 51.8 °F - 21.2 °F 30% 29.57 in 10.0 mi South 16.1 mph - N/A   Clear
5:55 PM 51.8 °F - 19.4 °F 28% 29.56 in 10.0 mi South 18.4 mph 25.3 mph N/A   Clear
6:15 PM 50.0 °F - 19.4 °F 30% 29.57 in 10.0 mi SSE 16.1 mph 24.2 mph N/A   Clear
6:35 PM 46.4 °F 41.9 °F 19.4 °F 34% 29.57 in 10.0 mi SSE 9.2 mph - N/A   Clear
6:55 PM 44.6 °F 39.2 °F 21.2 °F 39% 29.58 in 10.0 mi SSE 10.4 mph - N/A   Clear
7:15 PM 44.6 °F 39.7 °F 21.2 °F 39% 29.58 in 10.0 mi SE 9.2 mph - N/A   Clear
7:35 PM 44.6 °F 39.2 °F 21.2 °F 39% 29.57 in 10.0 mi ESE 10.4 mph - N/A   Clear
7:55 PM 42.8 °F 37.0 °F 21.2 °F 42% 29.56 in 10.0 mi ESE 10.4 mph - N/A   Clear
8:15 PM 42.8 °F 38.0 °F 19.4 °F 39% 29.57 in 10.0 mi ESE 8.1 mph - N/A   Partly Cloudy
8:35 PM 44.6 °F 39.2 °F 19.4 °F 37% 29.56 in 10.0 mi SE 10.4 mph - N/A   Clear
8:55 PM 42.8 °F 37.0 °F 21.2 °F 42% 29.56 in 10.0 mi ESE 10.4 mph - N/A   Clear
9:15 PM 42.8 °F 36.2 °F 21.2 °F 42% 29.55 in 10.0 mi SE 12.7 mph - N/A   Clear
9:35 PM 39.2 °F 33.0 °F 21.2 °F 49% 29.56 in 10.0 mi SSE 9.2 mph - N/A   Clear
9:55 PM 39.2 °F 32.5 °F 21.2 °F 49% 29.56 in 10.0 mi SSE 10.4 mph - N/A   Clear
10:15 PM 39.2 °F 34.2 °F 23.0 °F 52% 29.57 in 10.0 mi SE 6.9 mph - N/A   Scattered Clouds
10:35 PM 39.2 °F 33.0 °F 24.8 °F 56% 29.57 in 10.0 mi SSE 9.2 mph - N/A   Overcast
10:55 PM 37.4 °F 32.8 °F 23.0 °F 56% 29.57 in 10.0 mi ESE 5.8 mph - N/A   Mostly Cloudy
11:15 PM 39.2 °F 35.0 °F 24.8 °F 56% 29.57 in 10.0 mi SE 5.8 mph - N/A   Overcast
11:35 PM 35.6 °F 31.7 °F 23.0 °F 60% 29.61 in 10.0 mi NW 4.6 mph - N/A   Scattered Clouds
11:55 PM 37.4 °F 32.1 °F 24.8 °F 60% 29.59 in 10.0 mi SSW 6.9 mph - N/A   Clear